createdAt,value
2018-01-08T00:00:17.017Z,-2.16
2018-01-08T00:01:21.621Z,-2.02
2018-01-08T00:02:25.857Z,-2.02
2018-01-08T00:03:30.009Z,-2.10
2018-01-08T00:04:34.141Z,-2.03
2018-01-08T00:05:39.136Z,-2.04
2018-01-08T00:06:43.317Z,-2.16
2018-01-08T00:07:47.786Z,-2.15
2018-01-08T00:08:51.899Z,-2.17
2018-01-08T00:09:55.994Z,-2.11
2018-01-08T00:11:00.249Z,-2.06
2018-01-08T00:12:05.157Z,-2.12
2018-01-08T00:13:10.195Z,-2.19
2018-01-08T00:14:14.350Z,-2.16
2018-01-08T00:15:18.862Z,-2.05
2018-01-08T00:16:23.022Z,-2.00
2018-01-08T00:17:27.211Z,-2.16
2018-01-08T00:18:31.386Z,-2.18
2018-01-08T00:19:37.500Z,-2.20
2018-01-08T00:20:41.629Z,-2.23
2018-01-08T00:21:45.741Z,-2.01
2018-01-08T00:22:49.877Z,-2.16
2018-01-08T00:23:53.969Z,-2.26
2018-01-08T00:24:58.254Z,-2.30
2018-01-08T00:26:02.729Z,-2.23
2018-01-08T00:27:06.876Z,-2.28
2018-01-08T00:28:12.044Z,-2.37
2018-01-08T00:29:16.255Z,-2.39
2018-01-08T00:30:20.753Z,-2.40
2018-01-08T00:31:24.903Z,-2.32
2018-01-08T00:32:29.341Z,-2.39
2018-01-08T00:33:34.192Z,-2.34
2018-01-08T00:34:38.620Z,-2.41
2018-01-08T00:35:42.734Z,-2.43
2018-01-08T00:36:46.870Z,-2.43
2018-01-08T00:37:51.160Z,-2.34
2018-01-08T00:38:55.293Z,-2.26
2018-01-08T00:39:59.450Z,-2.16
2018-01-08T00:41:03.709Z,-2.32
2018-01-08T00:42:07.878Z,-2.23
2018-01-08T00:43:12.037Z,-2.30
2018-01-08T00:44:16.197Z,-2.39
2018-01-08T00:45:20.792Z,-2.46
2018-01-08T00:46:24.998Z,-2.51
2018-01-08T00:47:29.145Z,-2.42
2018-01-08T00:48:33.343Z,-2.24
2018-01-08T00:49:37.501Z,-2.31
2018-01-08T00:50:42.527Z,-2.47
2018-01-08T00:51:46.994Z,-2.50
2018-01-08T00:52:51.242Z,-2.30
2018-01-08T00:53:55.461Z,-2.51
2018-01-08T00:54:59.666Z,-2.50
2018-01-08T00:56:03.881Z,-2.52
2018-01-08T00:57:08.054Z,-2.37
2018-01-08T00:58:12.732Z,-2.39
2018-01-08T00:59:16.893Z,-2.38
2018-01-08T01:00:21.257Z,-2.53
2018-01-08T01:01:25.445Z,-2.46
2018-01-08T01:02:29.748Z,-2.49
2018-01-08T01:03:33.873Z,-2.35
2018-01-08T01:04:38.355Z,-2.44
2018-01-08T01:05:42.477Z,-2.47
2018-01-08T01:06:46.591Z,-2.49
2018-01-08T01:07:50.751Z,-2.43
2018-01-08T01:08:55.905Z,-2.46
2018-01-08T01:10:00.152Z,-2.57
2018-01-08T01:11:04.720Z,-2.43
2018-01-08T01:12:08.920Z,-2.41
2018-01-08T01:13:13.066Z,-2.60
2018-01-08T01:14:17.252Z,-2.65
2018-01-08T01:15:21.814Z,-2.81
2018-01-08T01:16:25.996Z,-2.77
2018-01-08T01:17:30.531Z,-2.65
2018-01-08T01:18:34.826Z,-2.64
2018-01-08T01:19:39.887Z,-2.58
2018-01-08T01:20:44.120Z,-2.68
2018-01-08T01:21:48.292Z,-2.58
2018-01-08T01:22:52.461Z,-2.47
2018-01-08T01:23:56.634Z,-2.46
2018-01-08T01:25:00.988Z,-2.45
2018-01-08T01:26:05.896Z,-2.50
2018-01-08T01:27:10.063Z,-2.54
2018-01-08T01:28:14.278Z,-2.71
2018-01-08T01:29:18.557Z,-2.56
2018-01-08T01:30:23.129Z,-2.68
2018-01-08T01:31:27.294Z,-2.65
2018-01-08T01:32:31.490Z,-2.67
2018-01-08T01:33:35.789Z,-2.75
2018-01-08T01:34:40.618Z,-2.77
2018-01-08T01:35:45.138Z,-2.57
2018-01-08T01:36:49.275Z,-2.39
2018-01-08T01:37:53.532Z,-2.49
2018-01-08T01:38:57.663Z,-2.60
2018-01-08T01:40:02.723Z,-2.66
2018-01-08T01:41:06.870Z,-2.79
2018-01-08T01:42:11.451Z,-2.80
2018-01-08T01:43:15.610Z,-2.56
2018-01-08T01:44:19.708Z,-2.55
2018-01-08T01:45:23.956Z,-2.72
2018-01-08T01:46:28.141Z,-2.78
2018-01-08T01:47:32.296Z,-2.74
2018-01-08T01:48:37.488Z,-2.84
2018-01-08T01:49:41.610Z,-2.75
2018-01-08T01:50:45.789Z,-2.79
2018-01-08T01:51:50.005Z,-2.76
2018-01-08T01:52:54.106Z,-2.72
2018-01-08T01:53:58.364Z,-2.63
2018-01-08T01:55:03.768Z,-2.68
2018-01-08T01:56:07.978Z,-2.51
2018-01-08T01:57:12.111Z,-2.48
2018-01-08T01:58:16.192Z,-2.39
2018-01-08T01:59:20.404Z,-2.52
2018-01-08T02:00:25.392Z,-2.56
2018-01-08T02:01:29.677Z,-2.64
2018-01-08T02:02:33.932Z,-2.63
2018-01-08T02:03:39.037Z,-2.70
2018-01-08T02:04:43.241Z,-2.64
2018-01-08T02:05:47.355Z,-2.52
2018-01-08T02:06:51.784Z,-2.66
2018-01-08T02:07:55.893Z,-2.73
2018-01-08T02:09:00.152Z,-2.65
2018-01-08T02:10:04.357Z,-2.64
2018-01-08T02:11:09.521Z,-2.58
2018-01-08T02:12:13.643Z,-2.59
2018-01-08T02:13:18.122Z,-2.71
2018-01-08T02:14:22.254Z,-2.62
2018-01-08T02:15:26.606Z,-2.62
2018-01-08T02:16:30.847Z,-2.56
2018-01-08T02:17:35.281Z,-2.65
2018-01-08T02:18:41.152Z,-2.52
2018-01-08T02:19:45.249Z,-2.66
2018-01-08T02:20:49.467Z,-2.67
2018-01-08T02:21:53.624Z,-2.64
2018-01-08T02:22:57.822Z,-2.72
2018-01-08T02:24:02.044Z,-2.69
2018-01-08T02:25:06.256Z,-2.74
2018-01-08T02:26:11.377Z,-2.52
2018-01-08T02:27:15.561Z,-2.52
2018-01-08T02:28:19.758Z,-2.72
2018-01-08T02:29:23.923Z,-2.62
2018-01-08T02:30:28.620Z,-2.66
2018-01-08T02:31:32.752Z,-2.63
2018-01-08T02:32:37.276Z,-2.56
2018-01-08T02:33:41.388Z,-2.46
2018-01-08T02:34:45.612Z,-2.58
2018-01-08T02:35:49.837Z,-2.62
2018-01-08T02:36:54.016Z,-2.52
2018-01-08T02:37:58.205Z,-2.57
2018-01-08T02:39:02.768Z,-2.56
2018-01-08T02:40:07.247Z,-2.70
2018-01-08T02:41:11.429Z,-2.75
2018-01-08T02:42:15.560Z,-2.64
2018-01-08T02:43:19.705Z,-2.77
2018-01-08T02:44:23.846Z,-2.74
2018-01-08T02:45:28.595Z,-2.60
2018-01-08T02:46:32.700Z,-2.55
2018-01-08T02:47:36.884Z,-2.63
2018-01-08T02:48:41.035Z,-2.66
2018-01-08T02:49:45.184Z,-2.62
2018-01-08T02:50:49.699Z,-2.62
2018-01-08T02:51:53.853Z,-2.68
2018-01-08T02:52:58.063Z,-2.75
2018-01-08T02:54:02.215Z,-2.78
2018-01-08T02:55:07.127Z,-2.93
2018-01-08T02:56:11.266Z,-2.98
2018-01-08T02:57:15.736Z,-2.98
2018-01-08T02:58:19.938Z,-2.95
2018-01-08T02:59:24.197Z,-2.91
2018-01-08T03:00:28.553Z,-2.78
2018-01-08T03:01:32.712Z,-2.78
2018-01-08T03:02:37.552Z,-2.79
2018-01-08T03:03:42.057Z,-2.78
2018-01-08T03:04:46.263Z,-2.85
2018-01-08T03:05:50.380Z,-2.82
2018-01-08T03:06:54.483Z,-2.85
2018-01-08T03:07:58.571Z,-2.62
2018-01-08T03:09:02.786Z,-2.77
2018-01-08T03:10:07.577Z,-2.73
2018-01-08T03:11:11.724Z,-2.84
2018-01-08T03:12:16.014Z,-2.81
2018-01-08T03:13:20.292Z,-2.82
2018-01-08T03:14:24.482Z,-2.92
2018-01-08T03:15:29.018Z,-2.87
2018-01-08T03:16:33.899Z,-2.99
2018-01-08T03:17:38.700Z,-3.15
2018-01-08T03:18:43.140Z,-3.01
2018-01-08T03:19:47.658Z,-2.86
2018-01-08T03:20:51.776Z,-2.97
2018-01-08T03:21:55.878Z,-3.14
2018-01-08T03:23:00.334Z,-3.10
2018-01-08T03:24:04.509Z,-2.91
2018-01-08T03:25:09.342Z,-2.85
2018-01-08T03:26:13.504Z,-2.95
2018-01-08T03:27:17.636Z,-2.85
2018-01-08T03:28:21.937Z,-2.83
2018-01-08T03:29:26.572Z,-2.97
2018-01-08T03:30:31.029Z,-3.02
2018-01-08T03:31:35.136Z,-3.11
2018-01-08T03:32:40.085Z,-3.25
2018-01-08T03:33:44.704Z,-3.15
2018-01-08T03:34:49.264Z,-3.22
2018-01-08T03:35:53.370Z,-3.18
2018-01-08T03:36:57.598Z,-3.15
2018-01-08T03:38:01.751Z,-3.04
2018-01-08T03:39:06.005Z,-3.03
2018-01-08T03:40:10.649Z,-3.00
2018-01-08T03:41:14.792Z,-2.95
2018-01-08T03:42:19.309Z,-3.00
2018-01-08T03:43:23.528Z,-2.92
2018-01-08T03:44:27.638Z,-3.02
2018-01-08T03:45:31.753Z,-3.04
2018-01-08T03:46:35.931Z,-3.00
2018-01-08T03:47:40.021Z,-2.95
2018-01-08T03:48:44.461Z,-2.94
2018-01-08T03:49:48.641Z,-2.89
2018-01-08T03:50:52.887Z,-2.91
2018-01-08T03:51:57.058Z,-3.05
2018-01-08T03:53:01.285Z,-3.12
2018-01-08T03:54:05.384Z,-2.94
2018-01-08T03:55:09.873Z,-2.94
2018-01-08T03:56:14.764Z,-2.99
2018-01-08T03:57:18.884Z,-3.17
2018-01-08T03:58:23.228Z,-3.23
2018-01-08T03:59:27.450Z,-3.37
2018-01-08T04:00:32.364Z,-3.51
2018-01-08T04:01:36.443Z,-3.53
2018-01-08T04:02:40.628Z,-3.54
2018-01-08T04:03:44.867Z,-3.51
2018-01-08T04:04:49.436Z,-3.48
2018-01-08T04:05:53.886Z,-3.56
2018-01-08T04:06:58.708Z,-3.59
2018-01-08T04:08:02.916Z,-3.62
2018-01-08T04:09:07.153Z,-3.66
2018-01-08T04:10:11.365Z,-3.62
2018-01-08T04:11:15.491Z,-3.70
2018-01-08T04:12:19.610Z,-3.65
2018-01-08T04:13:24.121Z,-3.50
2018-01-08T04:14:28.216Z,-3.48
2018-01-08T04:15:32.716Z,-3.54
2018-01-08T04:16:36.844Z,-3.65
2018-01-08T04:17:41.057Z,-3.63
2018-01-08T04:18:45.118Z,-3.65
2018-01-08T04:19:49.596Z,-3.55
2018-01-08T04:20:53.814Z,-3.64
2018-01-08T04:21:57.959Z,-3.54
2018-01-08T04:23:02.233Z,-3.51
2018-01-08T04:24:06.310Z,-3.47
2018-01-08T04:25:10.565Z,-3.43
2018-01-08T04:26:14.682Z,-3.37
2018-01-08T04:27:18.929Z,-3.25
2018-01-08T04:28:23.092Z,-3.28
2018-01-08T04:29:27.312Z,-3.13
2018-01-08T04:30:31.876Z,-3.04
2018-01-08T04:31:37.066Z,-3.15
2018-01-08T04:32:41.261Z,-3.12
2018-01-08T04:33:45.414Z,-3.14
2018-01-08T04:34:49.496Z,-3.12
2018-01-08T04:35:53.931Z,-3.09
2018-01-08T04:36:58.117Z,-3.00
2018-01-08T04:38:02.333Z,-3.06
2018-01-08T04:39:07.309Z,-3.13
2018-01-08T04:40:11.445Z,-3.17
2018-01-08T04:41:15.669Z,-3.18
2018-01-08T04:42:20.146Z,-2.97
2018-01-08T04:43:24.236Z,-2.98
2018-01-08T04:44:28.378Z,-2.92
2018-01-08T04:45:33.037Z,-3.00
2018-01-08T04:46:38.124Z,-3.04
2018-01-08T04:47:42.302Z,-3.01
2018-01-08T04:48:46.786Z,-2.85
2018-01-08T04:49:50.869Z,-2.87
2018-01-08T04:50:55.036Z,-2.91
2018-01-08T04:51:59.264Z,-3.12
2018-01-08T04:53:03.437Z,-3.00
2018-01-08T04:54:08.430Z,-2.95
2018-01-08T04:55:12.918Z,-2.89
2018-01-08T04:56:17.034Z,-2.64
2018-01-08T04:57:21.331Z,-2.79
2018-01-08T04:58:25.431Z,-2.67
2018-01-08T04:59:29.588Z,-2.77
2018-01-08T05:00:34.049Z,-2.86
2018-01-08T05:01:39.004Z,-3.01
2018-01-08T05:02:44.276Z,-3.08
2018-01-08T05:03:48.389Z,-3.01
2018-01-08T05:04:52.591Z,-2.90
2018-01-08T05:05:56.744Z,-2.82
2018-01-08T05:07:00.937Z,-2.77
2018-01-08T05:08:05.575Z,-2.85
2018-01-08T05:09:10.277Z,-2.67
2018-01-08T05:10:14.481Z,-2.58
2018-01-08T05:11:18.601Z,-2.63
2018-01-08T05:12:22.720Z,-2.79
2018-01-08T05:13:26.948Z,-2.74
2018-01-08T05:14:31.453Z,-2.81
2018-01-08T05:15:35.884Z,-2.76
2018-01-08T05:16:39.990Z,-2.65
2018-01-08T05:17:44.170Z,-2.60
2018-01-08T05:18:48.276Z,-2.59
2018-01-08T05:19:52.474Z,-2.63
2018-01-08T05:20:56.922Z,-2.66
2018-01-08T05:22:01.116Z,-2.51
2018-01-08T05:23:05.265Z,-2.55
2018-01-08T05:24:09.437Z,-2.85
2018-01-08T05:25:14.000Z,-2.87
2018-01-08T05:26:19.450Z,-2.71
2018-01-08T05:27:23.613Z,-2.84
2018-01-08T05:28:27.718Z,-2.98
2018-01-08T05:29:31.859Z,-3.00
2018-01-08T05:30:36.465Z,-2.93
2018-01-08T05:31:40.610Z,-2.90
2018-01-08T05:32:45.010Z,-3.02
2018-01-08T05:33:49.370Z,-2.88
2018-01-08T05:34:53.572Z,-2.77
2018-01-08T05:35:57.712Z,-2.84
2018-01-08T05:37:01.954Z,-2.97
2018-01-08T05:38:06.100Z,-2.79
2018-01-08T05:39:10.481Z,-2.70
2018-01-08T05:40:14.681Z,-2.62
2018-01-08T05:41:18.807Z,-2.63
2018-01-08T05:42:22.884Z,-2.58
2018-01-08T05:43:27.065Z,-2.58
2018-01-08T05:44:31.189Z,-2.54
2018-01-08T05:45:36.891Z,-2.60
2018-01-08T05:46:41.312Z,-2.71
2018-01-08T05:47:45.428Z,-2.47
2018-01-08T05:48:49.640Z,-2.44
2018-01-08T05:49:53.784Z,-2.38
2018-01-08T05:50:58.480Z,-2.58
2018-01-08T05:52:02.717Z,-2.53
2018-01-08T05:53:06.859Z,-2.53
2018-01-08T05:54:11.332Z,-2.70
2018-01-08T05:55:16.249Z,-2.86
2018-01-08T05:56:20.457Z,-2.89
2018-01-08T05:57:24.597Z,-2.78
2018-01-08T05:58:28.733Z,-2.68
2018-01-08T05:59:32.965Z,-2.75
2018-01-08T06:00:37.787Z,-2.63
2018-01-08T06:01:42.661Z,-2.56
2018-01-08T06:02:47.192Z,-2.70
2018-01-08T06:03:51.344Z,-2.76
2018-01-08T06:04:55.656Z,-2.74
2018-01-08T06:05:59.826Z,-2.79
2018-01-08T06:07:03.937Z,-2.76
2018-01-08T06:08:08.807Z,-2.63
2018-01-08T06:09:12.926Z,-2.54
2018-01-08T06:10:17.209Z,-2.61
2018-01-08T06:11:21.302Z,-2.65
2018-01-08T06:12:25.408Z,-2.71
2018-01-08T06:13:29.620Z,-2.93
2018-01-08T06:14:34.133Z,-3.01
2018-01-08T06:15:39.480Z,-2.92
2018-01-08T06:16:43.614Z,-2.85
2018-01-08T06:17:47.913Z,-2.81
2018-01-08T06:18:52.014Z,-2.64
2018-01-08T06:19:56.204Z,-2.52
2018-01-08T06:21:00.653Z,-2.71
2018-01-08T06:22:04.771Z,-2.81
2018-01-08T06:23:09.677Z,-2.69
2018-01-08T06:24:13.794Z,-2.78
2018-01-08T06:25:17.978Z,-2.82
2018-01-08T06:26:22.085Z,-2.79
2018-01-08T06:27:26.194Z,-2.82
2018-01-08T06:28:30.340Z,-2.63
2018-01-08T06:29:34.588Z,-2.68
2018-01-08T06:30:39.148Z,-2.78
2018-01-08T06:31:43.250Z,-2.91
2018-01-08T06:32:47.388Z,-2.81
2018-01-08T06:33:51.857Z,-2.87
2018-01-08T06:34:55.974Z,-2.87
2018-01-08T06:36:00.066Z,-2.77
2018-01-08T06:37:04.332Z,-2.79
2018-01-08T06:38:08.534Z,-2.81
2018-01-08T06:39:13.200Z,-2.72
2018-01-08T06:40:17.605Z,-2.63
2018-01-08T06:41:21.702Z,-2.74
2018-01-08T06:42:25.983Z,-2.60
2018-01-08T06:43:30.117Z,-2.62
2018-01-08T06:44:34.273Z,-2.66
2018-01-08T06:45:39.740Z,-2.53
2018-01-08T06:46:44.518Z,-2.62
2018-01-08T06:47:48.641Z,-2.63
2018-01-08T06:48:52.716Z,-2.59
2018-01-08T06:49:56.934Z,-2.62
2018-01-08T06:51:01.121Z,-2.61
2018-01-08T06:52:05.235Z,-2.62
2018-01-08T06:53:09.724Z,-2.55
2018-01-08T06:54:14.425Z,-2.63
2018-01-08T06:55:18.634Z,-2.70
2018-01-08T06:56:22.840Z,-2.59
2018-01-08T06:57:26.966Z,-2.64
2018-01-08T06:58:31.517Z,-2.55
2018-01-08T06:59:35.624Z,-2.55
2018-01-08T07:00:40.313Z,-2.42
2018-01-08T07:01:44.487Z,-2.51
2018-01-08T07:02:48.669Z,-2.52
2018-01-08T07:03:53.736Z,-2.66
2018-01-08T07:04:58.208Z,-2.61
2018-01-08T07:06:02.436Z,-2.53
2018-01-08T07:07:06.625Z,-2.64
2018-01-08T07:08:10.828Z,-2.66
2018-01-08T07:09:14.992Z,-2.74
2018-01-08T07:10:19.286Z,-2.83
2018-01-08T07:11:23.749Z,-2.90
2018-01-08T07:12:27.911Z,-2.95
2018-01-08T07:13:32.115Z,-3.01
2018-01-08T07:14:36.925Z,-2.95
2018-01-08T07:15:41.285Z,-2.93
2018-01-08T07:16:45.416Z,-2.78
2018-01-08T07:17:49.609Z,-2.89
2018-01-08T07:18:53.733Z,-2.88
2018-01-08T07:19:57.837Z,-2.82
2018-01-08T07:21:01.998Z,-2.82
2018-01-08T07:22:06.208Z,-2.92
2018-01-08T07:23:10.344Z,-2.96
2018-01-08T07:24:14.911Z,-2.99
2018-01-08T07:25:19.100Z,-2.81
2018-01-08T07:26:23.252Z,-2.81
2018-01-08T07:27:27.438Z,-2.75
2018-01-08T07:28:31.685Z,-2.76
2018-01-08T07:29:35.874Z,-2.79
2018-01-08T07:30:40.998Z,-2.83
2018-01-08T07:31:45.269Z,-2.90
2018-01-08T07:32:49.758Z,-2.83
2018-01-08T07:33:53.990Z,-2.92
2018-01-08T07:34:58.188Z,-2.92
2018-01-08T07:36:02.276Z,-3.02
2018-01-08T07:37:06.699Z,-2.93
2018-01-08T07:38:11.594Z,-2.96
2018-01-08T07:39:16.312Z,-2.92
2018-01-08T07:40:20.545Z,-2.86
2018-01-08T07:41:24.700Z,-2.93
2018-01-08T07:42:28.953Z,-2.87
2018-01-08T07:43:33.400Z,-2.78
2018-01-08T07:44:37.525Z,-2.79
2018-01-08T07:45:42.341Z,-2.77
2018-01-08T07:46:46.458Z,-2.78
2018-01-08T07:47:50.614Z,-2.87
2018-01-08T07:48:55.496Z,-2.95
2018-01-08T07:49:59.934Z,-2.81
2018-01-08T07:51:04.162Z,-2.70
2018-01-08T07:52:09.561Z,-2.67
2018-01-08T07:53:13.758Z,-2.60
2018-01-08T07:54:17.890Z,-2.63
2018-01-08T07:55:22.065Z,-2.55
2018-01-08T07:56:26.506Z,-2.63
2018-01-08T07:57:30.664Z,-2.54
2018-01-08T07:58:34.868Z,-2.53
2018-01-08T07:59:39.652Z,-2.49
2018-01-08T08:00:44.328Z,-2.52
2018-01-08T08:01:48.641Z,-2.58
2018-01-08T08:02:52.737Z,-2.36
2018-01-08T08:03:57.336Z,-2.10
2018-01-08T08:05:01.504Z,-2.04
2018-01-08T08:06:05.674Z,-2.02
2018-01-08T08:07:10.018Z,-1.89
2018-01-08T08:08:14.149Z,-1.75
2018-01-08T08:09:18.723Z,-1.76
2018-01-08T08:10:22.793Z,-1.70
2018-01-08T08:11:26.973Z,-1.37
2018-01-08T08:12:31.076Z,-1.37
2018-01-08T08:13:35.253Z,-1.28
2018-01-08T08:14:39.377Z,-1.20
2018-01-08T08:15:44.227Z,-1.18
2018-01-08T08:16:48.649Z,-1.27
2018-01-08T08:17:52.861Z,-1.31
2018-01-08T08:18:57.052Z,-1.28
2018-01-08T08:20:01.206Z,-1.18
2018-01-08T08:21:05.760Z,-0.95
2018-01-08T08:22:11.067Z,-0.85
2018-01-08T08:23:15.188Z,-0.74
2018-01-08T08:24:19.370Z,-0.77
2018-01-08T08:25:23.530Z,-0.79
2018-01-08T08:26:27.632Z,-0.81
2018-01-08T08:27:31.767Z,-0.67
2018-01-08T08:28:36.026Z,-0.66
2018-01-08T08:29:40.156Z,-0.59
2018-01-08T08:30:44.389Z,-0.59
2018-01-08T08:31:48.514Z,-0.55
2018-01-08T08:32:52.789Z,-0.60
2018-01-08T08:33:57.468Z,-0.71
2018-01-08T08:35:01.787Z,-0.60
2018-01-08T08:36:05.957Z,-0.79
2018-01-08T08:37:10.189Z,-0.80
2018-01-08T08:38:14.443Z,-0.78
2018-01-08T08:39:18.580Z,-0.90
2018-01-08T08:40:23.197Z,-0.91
2018-01-08T08:41:27.355Z,-0.68
2018-01-08T08:42:31.503Z,-0.60
2018-01-08T08:43:37.042Z,-0.75
2018-01-08T08:44:41.141Z,-0.67
2018-01-08T08:45:45.264Z,-0.37
2018-01-08T08:46:49.876Z,-0.24
2018-01-08T08:47:54.046Z,-0.16
2018-01-08T08:48:58.362Z,-0.09
2018-01-08T08:50:02.495Z,-0.04
2018-01-08T08:51:06.637Z,-0.06
2018-01-08T08:52:10.836Z,-0.09
2018-01-08T08:53:14.946Z,-0.07
2018-01-08T08:54:19.182Z,0.10
2018-01-08T08:55:23.329Z,0.17
2018-01-08T08:56:27.571Z,0.29
2018-01-08T08:57:31.846Z,0.29
2018-01-08T08:58:36.019Z,0.47
2018-01-08T08:59:40.984Z,0.54
2018-01-08T09:00:45.345Z,0.53
2018-01-08T09:01:49.501Z,0.78
2018-01-08T09:02:53.763Z,0.85
2018-01-08T09:03:58.024Z,0.66
2018-01-08T09:05:02.555Z,0.58
2018-01-08T09:06:06.760Z,0.72
2018-01-08T09:07:11.793Z,0.91
2018-01-08T09:08:16.016Z,0.80
2018-01-08T09:09:20.188Z,0.86
2018-01-08T09:10:24.345Z,0.90
2018-01-08T09:11:28.884Z,0.86
2018-01-08T09:12:33.124Z,0.97
2018-01-08T09:13:37.320Z,1.01
2018-01-08T09:14:42.017Z,1.03
2018-01-08T09:15:46.179Z,1.05
2018-01-08T09:16:50.335Z,0.95
2018-01-08T09:17:54.897Z,0.92
2018-01-08T09:18:59.241Z,1.11
2018-01-08T09:20:03.452Z,1.10
2018-01-08T09:21:07.694Z,1.10
2018-01-08T09:22:12.734Z,0.99
2018-01-08T09:23:16.856Z,1.14
2018-01-08T09:24:21.096Z,1.22
2018-01-08T09:25:25.272Z,1.30
2018-01-08T09:26:29.508Z,1.19
2018-01-08T09:27:33.642Z,1.08
2018-01-08T09:28:38.834Z,1.09
2018-01-08T09:29:43.297Z,1.10
2018-01-08T09:30:47.397Z,0.97
2018-01-08T09:31:51.664Z,0.89
2018-01-08T09:32:55.822Z,1.14
2018-01-08T09:33:59.942Z,1.29
2018-01-08T09:35:04.435Z,1.32
2018-01-08T09:36:08.697Z,1.52
2018-01-08T09:37:13.833Z,1.51
2018-01-08T09:38:18.012Z,1.52
2018-01-08T09:39:22.132Z,1.29
2018-01-08T09:40:26.329Z,1.19
2018-01-08T09:41:30.493Z,1.18
2018-01-08T09:42:34.688Z,1.22
2018-01-08T09:43:38.835Z,1.22
2018-01-08T09:44:43.011Z,1.31
2018-01-08T09:45:47.410Z,1.30
2018-01-08T09:46:52.011Z,1.12
2018-01-08T09:47:56.165Z,1.13
2018-01-08T09:49:00.358Z,1.24
2018-01-08T09:50:04.558Z,1.23
2018-01-08T09:51:08.897Z,1.21
2018-01-08T09:52:13.088Z,1.10
2018-01-08T09:53:17.585Z,0.91
2018-01-08T09:54:21.695Z,0.82
2018-01-08T09:55:25.865Z,0.94
2018-01-08T09:56:30.105Z,1.10
2018-01-08T09:57:34.267Z,0.83
2018-01-08T09:58:39.128Z,0.73
2018-01-08T09:59:43.298Z,0.76
2018-01-08T10:00:47.690Z,0.95
2018-01-08T10:01:52.425Z,1.10
2018-01-08T10:03:07.202Z,1.15
2018-01-08T10:04:22.107Z,1.15
2018-01-08T10:05:38.386Z,1.23
2018-01-08T10:06:53.165Z,1.31
2018-01-08T10:08:07.949Z,1.50
2018-01-08T10:09:22.845Z,1.67
2018-01-08T10:10:37.855Z,1.82
2018-01-08T10:11:53.016Z,2.00
2018-01-08T10:13:07.824Z,2.09
2018-01-08T10:14:22.708Z,2.10
2018-01-08T10:15:37.863Z,2.08
2018-01-08T10:16:52.997Z,2.31
2018-01-08T10:18:08.847Z,2.45
2018-01-08T10:19:56.284Z,2.50
2018-01-08T10:21:00.446Z,2.36
2018-01-08T10:22:05.582Z,2.53
2018-01-08T10:23:10.015Z,2.64
2018-01-08T10:24:14.970Z,2.49
2018-01-08T10:25:19.194Z,2.48
2018-01-08T10:26:23.321Z,2.71
2018-01-08T10:27:27.528Z,2.83
2018-01-08T10:28:32.926Z,2.97
2018-01-08T10:29:37.041Z,3.08
2018-01-08T10:30:41.636Z,3.18
2018-01-08T10:31:45.756Z,3.12
2018-01-08T10:32:49.975Z,3.20
2018-01-08T10:33:54.118Z,3.25
2018-01-08T10:34:58.425Z,3.13
2018-01-08T10:36:02.722Z,3.23
2018-01-08T10:37:07.199Z,3.27
2018-01-08T10:38:12.195Z,3.31
2018-01-08T10:39:16.358Z,3.19
2018-01-08T10:40:20.714Z,3.27
2018-01-08T10:41:29.751Z,3.27
2018-01-08T10:42:39.146Z,3.56
2018-01-08T10:43:48.286Z,3.72
2018-01-08T10:44:57.350Z,3.72
2018-01-08T10:46:06.947Z,3.93
2018-01-08T10:47:17.247Z,3.64
2018-01-08T10:48:27.031Z,3.76
2018-01-08T10:49:36.526Z,3.90
2018-01-08T10:50:46.512Z,4.10
2018-01-08T10:51:49.594Z,3.99
2018-01-08T10:52:54.014Z,3.96
2018-01-08T10:53:58.452Z,4.01
2018-01-08T10:55:03.110Z,3.98
2018-01-08T10:56:07.324Z,4.24
2018-01-08T10:57:11.494Z,4.33
2018-01-08T10:58:15.644Z,4.45
2018-01-08T10:59:19.822Z,4.39
2018-01-08T11:00:24.325Z,4.14
2018-01-08T11:01:32.807Z,4.21
2018-01-08T11:04:43.107Z,4.53
2018-01-08T11:05:47.601Z,5.07
2018-01-08T11:06:51.776Z,5.05
2018-01-08T11:07:56.051Z,4.62
2018-01-08T11:09:00.254Z,4.51
2018-01-08T11:10:04.529Z,4.38
2018-01-08T11:11:08.865Z,4.49
2018-01-08T11:12:13.334Z,4.60
2018-01-08T11:13:17.434Z,4.44
2018-01-08T11:14:22.058Z,4.50
2018-01-08T11:15:26.500Z,4.63
2018-01-08T11:16:30.796Z,4.76
2018-01-08T11:17:34.986Z,4.72
2018-01-08T11:18:40.360Z,4.38
2018-01-08T11:19:44.550Z,4.55
2018-01-08T11:20:48.752Z,4.62
2018-01-08T11:21:53.005Z,4.36
2018-01-08T11:22:57.148Z,4.43
2018-01-08T11:24:01.724Z,4.68
2018-01-08T11:25:05.920Z,4.80
2018-01-08T11:26:10.777Z,4.90
2018-01-08T11:27:15.034Z,4.52
2018-01-08T11:28:19.339Z,4.85
2018-01-08T11:29:23.449Z,4.95
2018-01-08T11:30:28.188Z,5.33
2018-01-08T11:31:32.755Z,5.21
2018-01-08T11:32:37.004Z,5.15
2018-01-08T11:33:42.167Z,4.84
2018-01-08T11:34:46.336Z,5.26
2018-01-08T11:35:50.554Z,5.41
2018-01-08T11:36:54.816Z,5.55
2018-01-08T11:37:59.288Z,5.67
2018-01-08T11:39:03.674Z,5.49
2018-01-08T11:40:08.463Z,5.32
2018-01-08T11:41:13.121Z,5.35
2018-01-08T11:42:17.302Z,5.39
2018-01-08T11:43:21.553Z,5.23
2018-01-08T11:44:26.109Z,5.26
2018-01-08T11:45:30.617Z,5.18
2018-01-08T11:46:34.817Z,5.31
2018-01-08T11:47:39.553Z,5.02
2018-01-08T11:48:43.720Z,4.77
2018-01-08T11:49:48.019Z,4.98
2018-01-08T11:50:52.985Z,5.46
2018-01-08T11:51:57.122Z,5.32
2018-01-08T11:53:01.386Z,5.13
2018-01-08T11:54:05.902Z,5.28
2018-01-08T11:55:10.835Z,5.31
2018-01-08T11:56:15.411Z,5.43
2018-01-08T11:57:19.569Z,5.33
2018-01-08T11:58:23.730Z,5.44
2018-01-08T11:59:27.988Z,5.62
2018-01-08T12:00:33.110Z,5.40
2018-01-08T12:01:37.231Z,5.59
2018-01-08T12:02:42.683Z,5.53
2018-01-08T12:03:46.940Z,5.71
2018-01-08T12:04:51.135Z,6.09
2018-01-08T12:05:55.455Z,6.16
2018-01-08T12:06:59.657Z,5.14
2018-01-08T12:08:04.131Z,5.35
2018-01-08T12:09:08.853Z,5.43
2018-01-08T12:10:13.949Z,5.50
2018-01-08T12:11:18.294Z,5.23
2018-01-08T12:12:22.514Z,5.08
2018-01-08T12:13:26.875Z,5.46
2018-01-08T12:14:31.113Z,5.65
2018-01-08T12:15:35.465Z,5.93
2018-01-08T12:16:41.453Z,6.19
2018-01-08T12:17:45.629Z,5.68
2018-01-08T12:18:50.456Z,5.92
2018-01-08T12:19:54.887Z,6.01
2018-01-08T12:20:59.049Z,6.21
2018-01-08T12:22:03.857Z,6.51
2018-01-08T12:23:08.614Z,6.23
2018-01-08T12:24:15.051Z,5.30
2018-01-08T12:25:19.331Z,5.34
2018-01-08T12:26:23.489Z,5.29
2018-01-08T12:27:27.817Z,5.32
2018-01-08T12:28:32.337Z,5.48
2018-01-08T12:29:36.484Z,6.10
2018-01-08T12:30:41.248Z,6.12
2018-01-08T12:31:45.458Z,6.35
2018-01-08T12:32:49.734Z,6.41
2018-01-08T12:33:53.998Z,6.51
2018-01-08T12:34:58.438Z,6.16
2018-01-08T12:36:02.719Z,6.31
2018-01-08T12:37:06.891Z,6.50
2018-01-08T12:38:11.720Z,6.30
2018-01-08T12:39:15.922Z,6.39
2018-01-08T12:40:20.338Z,6.33
2018-01-08T12:41:24.866Z,6.41
2018-01-08T12:42:29.326Z,6.46
2018-01-08T12:43:33.577Z,6.20
2018-01-08T12:44:37.747Z,6.24
2018-01-08T12:45:42.163Z,6.52
2018-01-08T12:46:47.746Z,6.18
2018-01-08T12:47:52.209Z,6.58
2018-01-08T12:48:56.410Z,6.98
2018-01-08T12:50:00.815Z,7.30
2018-01-08T12:51:05.006Z,7.53
2018-01-08T12:52:09.498Z,7.80
2018-01-08T12:53:15.327Z,7.46
2018-01-08T12:54:19.592Z,6.93
2018-01-08T12:55:23.808Z,7.25
2018-01-08T12:56:28.388Z,7.49
2018-01-08T12:57:32.584Z,6.83
2018-01-08T12:58:37.261Z,6.84
2018-01-08T12:59:41.730Z,6.92
2018-01-08T13:00:46.060Z,6.80
2018-01-08T13:01:50.295Z,6.49
2018-01-08T13:02:54.449Z,6.84
2018-01-08T13:03:58.769Z,7.11
2018-01-08T13:05:03.005Z,6.91
2018-01-08T13:06:07.209Z,6.18
2018-01-08T13:07:11.372Z,6.28
2018-01-08T13:08:16.877Z,6.55
2018-01-08T13:09:21.508Z,6.57
2018-01-08T13:10:25.860Z,6.48
2018-01-08T13:11:30.919Z,6.31
2018-01-08T13:12:35.387Z,6.61
2018-01-08T13:13:39.603Z,6.26
2018-01-08T13:14:43.845Z,7.06
2018-01-08T13:15:48.250Z,6.15
2018-01-08T13:16:52.431Z,5.97
2018-01-08T13:17:56.728Z,6.45
2018-01-08T13:19:01.304Z,6.28
2018-01-08T13:20:05.526Z,6.68
2018-01-08T13:21:09.762Z,6.44
2018-01-08T13:22:13.995Z,6.61
2018-01-08T13:23:18.216Z,6.74
2018-01-08T13:24:22.403Z,6.00
2018-01-08T13:25:28.078Z,5.46
2018-01-08T13:26:32.229Z,5.87
2018-01-08T13:27:36.397Z,6.20
2018-01-08T13:28:40.705Z,6.35
2018-01-08T13:29:45.013Z,6.12
2018-01-08T13:30:49.954Z,7.02
2018-01-08T13:31:54.475Z,8.10
2018-01-08T13:32:58.681Z,8.03
2018-01-08T13:34:02.931Z,7.85
2018-01-08T13:35:07.350Z,7.93
2018-01-08T13:36:11.658Z,7.79
2018-01-08T13:37:16.151Z,8.00
2018-01-08T13:38:20.341Z,7.68
2018-01-08T13:39:24.564Z,7.64
2018-01-08T13:40:29.006Z,7.68
2018-01-08T13:41:33.180Z,7.03
2018-01-08T13:42:37.514Z,7.42
2018-01-08T13:43:42.308Z,7.64
2018-01-08T13:44:46.558Z,7.83
2018-01-08T13:45:51.040Z,7.41
2018-01-08T13:46:55.320Z,7.18
2018-01-08T13:47:59.615Z,6.79
2018-01-08T13:49:04.073Z,6.77
2018-01-08T13:50:08.651Z,6.55
2018-01-08T13:51:12.930Z,6.80
2018-01-08T13:52:17.211Z,6.51
2018-01-08T13:53:21.574Z,6.38
2018-01-08T13:54:25.890Z,7.06
2018-01-08T13:55:31.036Z,7.73
2018-01-08T13:56:35.415Z,7.51
2018-01-08T13:57:39.604Z,7.81
2018-01-08T13:58:43.926Z,7.13
2018-01-08T13:59:48.194Z,6.74
2018-01-08T14:00:52.806Z,6.84
2018-01-08T14:01:57.129Z,6.63
2018-01-08T14:03:02.110Z,7.13
2018-01-08T14:04:06.705Z,7.00